sensor_id;sensor_type;location;lat;lon;timestamp;pressure;altitude;pressure_sealevel;temperature;humidity
71678;BME280;59511;52.136;6.206;2023-09-12T00:02:00;101402.88;;;22.65;73.76
71678;BME280;59511;52.136;6.206;2023-09-12T00:04:26;101409.97;;;22.66;73.59
71678;BME280;59511;52.136;6.206;2023-09-12T00:06:51;101399.13;;;22.66;73.62
71678;BME280;59511;52.136;6.206;2023-09-12T00:09:16;101392.84;;;22.66;74.12
71678;BME280;59511;52.136;6.206;2023-09-12T00:11:42;101395.56;;;22.66;73.71
71678;BME280;59511;52.136;6.206;2023-09-12T00:14:09;101383.31;;;22.63;73.88
71678;BME280;59511;52.136;6.206;2023-09-12T00:16:34;101401.00;;;22.66;73.61
71678;BME280;59511;52.136;6.206;2023-09-12T00:18:59;101389.31;;;22.65;73.67
71678;BME280;59511;52.136;6.206;2023-09-12T00:21:25;101377.41;;;22.66;73.65
71678;BME280;59511;52.136;6.206;2023-09-12T00:23:50;101372.81;;;22.67;73.73
71678;BME280;59511;52.136;6.206;2023-09-12T00:26:15;101366.53;;;22.66;73.77
71678;BME280;59511;52.136;6.206;2023-09-12T00:28:41;101372.81;;;22.67;73.77
71678;BME280;59511;52.136;6.206;2023-09-12T00:31:06;101364.41;;;22.68;73.64
71678;BME280;59511;52.136;6.206;2023-09-12T00:33:32;101366.28;;;22.68;73.59
71678;BME280;59511;52.136;6.206;2023-09-12T00:35:57;101367.94;;;22.69;73.74
71678;BME280;59511;52.136;6.206;2023-09-12T00:38:23;101376.09;;;22.69;73.88
71678;BME280;59511;52.136;6.206;2023-09-12T00:40:48;101384.94;;;22.64;73.73
71678;BME280;59511;52.136;6.206;2023-09-12T00:43:13;101397.69;;;22.64;73.82
71678;BME280;59511;52.136;6.206;2023-09-12T00:45:39;101412.44;;;22.68;73.93
71678;BME280;59511;52.136;6.206;2023-09-12T00:48:06;101406.19;;;22.67;73.55
71678;BME280;59511;52.136;6.206;2023-09-12T00:50:32;101416.81;;;22.69;73.58
71678;BME280;59511;52.136;6.206;2023-09-12T00:52:59;101425.78;;;22.69;73.56
71678;BME280;59511;52.136;6.206;2023-09-12T00:55:25;101417.88;;;22.68;73.53
71678;BME280;59511;52.136;6.206;2023-09-12T00:57:52;101420.34;;;22.69;73.55
71678;BME280;59511;52.136;6.206;2023-09-12T01:00:18;101427.44;;;22.70;73.70
71678;BME280;59511;52.136;6.206;2023-09-12T01:02:45;101434.53;;;22.71;73.48
71678;BME280;59511;52.136;6.206;2023-09-12T01:05:13;101446.66;;;22.69;73.49
71678;BME280;59511;52.136;6.206;2023-09-12T01:07:39;101444.66;;;22.64;73.78
71678;BME280;59511;52.136;6.206;2023-09-12T01:10:06;101438.16;;;22.65;73.68
71678;BME280;59511;52.136;6.206;2023-09-12T01:12:32;101406.91;;;22.63;73.79
71678;BME280;59511;52.136;6.206;2023-09-12T01:14:57;101389.53;;;22.64;73.64
71678;BME280;59511;52.136;6.206;2023-09-12T01:17:23;101376.81;;;22.64;73.82
71678;BME280;59511;52.136;6.206;2023-09-12T01:19:49;101382.00;;;22.66;73.74
71678;BME280;59511;52.136;6.206;2023-09-12T01:27:47;101376.81;;;22.64;73.66
71678;BME280;59511;52.136;6.206;2023-09-12T01:30:17;101385.78;;;22.65;73.90
71678;BME280;59511;52.136;6.206;2023-09-12T01:32:43;101391.81;;;22.67;73.65
71678;BME280;59511;52.136;6.206;2023-09-12T01:35:08;101386.59;;;22.65;73.66
71678;BME280;59511;52.136;6.206;2023-09-12T01:37:34;101385.53;;;22.66;73.73
71678;BME280;59511;52.136;6.206;2023-09-12T01:39:59;101383.88;;;22.65;73.65
71678;BME280;59511;52.136;6.206;2023-09-12T01:42:30;101388.00;;;22.68;73.65
71678;BME280;59511;52.136;6.206;2023-09-12T01:44:56;101371.72;;;22.68;73.71
71678;BME280;59511;52.136;6.206;2023-09-12T01:47:23;101366.06;;;22.69;73.56
71678;BME280;59511;52.136;6.206;2023-09-12T01:49:52;101359.44;;;22.65;73.70
71678;BME280;59511;52.136;6.206;2023-09-12T01:52:19;101372.81;;;22.67;73.61
71678;BME280;59511;52.136;6.206;2023-09-12T01:54:45;101363.59;;;22.68;73.60
71678;BME280;59511;52.136;6.206;2023-09-12T01:57:13;101371.13;;;22.66;73.73
71678;BME280;59511;52.136;6.206;2023-09-12T01:59:39;101361.34;;;22.65;73.80
71678;BME280;59511;52.136;6.206;2023-09-12T02:02:05;101356.72;;;22.65;73.96
71678;BME280;59511;52.136;6.206;2023-09-12T02:04:30;101359.00;;;22.68;73.64
71678;BME280;59511;52.136;6.206;2023-09-12T02:06:55;101358.75;;;22.70;73.73
71678;BME280;59511;52.136;6.206;2023-09-12T02:09:21;101361.72;;;22.68;73.71
71678;BME280;59511;52.136;6.206;2023-09-12T02:11:48;101361.94;;;22.67;73.64
71678;BME280;59511;52.136;6.206;2023-09-12T02:14:13;101364.66;;;22.67;74.02
71678;BME280;59511;52.136;6.206;2023-09-12T02:16:39;101366.28;;;22.68;73.62
71678;BME280;59511;52.136;6.206;2023-09-12T02:19:05;101363.81;;;22.66;73.96
71678;BME280;59511;52.136;6.206;2023-09-12T02:21:31;101360.63;;;22.69;73.67
71678;BME280;59511;52.136;6.206;2023-09-12T02:23:56;101360.88;;;22.68;73.82
71678;BME280;59511;52.136;6.206;2023-09-12T02:26:22;101361.47;;;22.70;73.58
71678;BME280;59511;52.136;6.206;2023-09-12T02:28:47;101359.34;;;22.72;73.51
71678;BME280;59511;52.136;6.206;2023-09-12T02:31:12;101359.59;;;22.70;73.64
71678;BME280;59511;52.136;6.206;2023-09-12T02:33:38;101356.63;;;22.72;73.59
71678;BME280;59511;52.136;6.206;2023-09-12T02:36:05;101363.94;;;22.71;73.57
71678;BME280;59511;52.136;6.206;2023-09-12T02:38:30;101363.34;;;22.69;73.46
71678;BME280;59511;52.136;6.206;2023-09-12T02:40:56;101363.69;;;22.73;73.48
71678;BME280;59511;52.136;6.206;2023-09-12T02:43:21;101374.78;;;22.71;73.55
71678;BME280;59511;52.136;6.206;2023-09-12T02:45:47;101365.81;;;22.71;73.46
71678;BME280;59511;52.136;6.206;2023-09-12T02:48:12;101375.63;;;22.72;73.51
71678;BME280;59511;52.136;6.206;2023-09-12T02:50:38;101385.16;;;22.74;73.39
71678;BME280;59511;52.136;6.206;2023-09-12T02:53:03;101382.44;;;22.74;73.37
71678;BME280;59511;52.136;6.206;2023-09-12T02:55:28;101385.66;;;22.71;73.60
71678;BME280;59511;52.136;6.206;2023-09-12T02:57:54;101395.44;;;22.72;73.20
71678;BME280;59511;52.136;6.206;2023-09-12T03:00:19;101398.16;;;22.72;73.56
71678;BME280;59511;52.136;6.206;2023-09-12T03:02:45;101389.78;;;22.74;73.26
71678;BME280;59511;52.136;6.206;2023-09-12T03:05:10;101394.88;;;22.70;73.40
71678;BME280;59511;52.136;6.206;2023-09-12T03:07:36;101399.47;;;22.70;73.52
71678;BME280;59511;52.136;6.206;2023-09-12T03:10:01;101404.06;;;22.69;73.55
71678;BME280;59511;52.136;6.206;2023-09-12T03:12:27;101398.88;;;22.68;73.67
71678;BME280;59511;52.136;6.206;2023-09-12T03:14:52;101399.72;;;22.68;73.64
71678;BME280;59511;52.136;6.206;2023-09-12T03:17:17;101396.75;;;22.70;73.66
71678;BME280;59511;52.136;6.206;2023-09-12T03:19:43;101385.91;;;22.70;73.64
71678;BME280;59511;52.136;6.206;2023-09-12T03:22:08;101388.59;;;22.70;73.45
71678;BME280;59511;52.136;6.206;2023-09-12T03:24:34;101387.78;;;22.69;73.55
71678;BME280;59511;52.136;6.206;2023-09-12T03:27:00;101387.78;;;22.69;73.57
71678;BME280;59511;52.136;6.206;2023-09-12T03:29:25;101390.00;;;22.72;73.65
71678;BME280;59511;52.136;6.206;2023-09-12T03:31:50;101388.97;;;22.73;73.40
71678;BME280;59511;52.136;6.206;2023-09-12T03:34:16;101377.50;;;22.71;73.59
71678;BME280;59511;52.136;6.206;2023-09-12T03:36:41;101378.09;;;22.73;73.03
71678;BME280;59511;52.136;6.206;2023-09-12T03:39:06;101374.56;;;22.73;73.60
71678;BME280;59511;52.136;6.206;2023-09-12T03:41:34;101375.63;;;22.72;73.38
71678;BME280;59511;52.136;6.206;2023-09-12T03:43:59;101370.78;;;22.74;73.43
71678;BME280;59511;52.136;6.206;2023-09-12T03:46:25;101369.72;;;22.75;73.48
71678;BME280;59511;52.136;6.206;2023-09-12T03:48:50;101360.97;;;22.73;73.31
71678;BME280;59511;52.136;6.206;2023-09-12T03:51:16;101364.53;;;22.73;73.37
71678;BME280;59511;52.136;6.206;2023-09-12T03:53:41;101362.66;;;22.74;73.29
71678;BME280;59511;52.136;6.206;2023-09-12T03:56:07;101362.66;;;22.74;73.31
71678;BME280;59511;52.136;6.206;2023-09-12T03:58:33;101367.25;;;22.73;73.49
71678;BME280;59511;52.136;6.206;2023-09-12T04:00:58;101354.25;;;22.75;73.46
71678;BME280;59511;52.136;6.206;2023-09-12T04:03:24;101347.75;;;22.76;73.21
71678;BME280;59511;52.136;6.206;2023-09-12T04:05:50;101350.47;;;22.76;73.26
71678;BME280;59511;52.136;6.206;2023-09-12T04:08:16;101345.53;;;22.73;73.21
71678;BME280;59511;52.136;6.206;2023-09-12T04:10:42;101334.91;;;22.72;73.49
71678;BME280;59511;52.136;6.206;2023-09-12T04:13:07;101334.41;;;22.75;73.40
71678;BME280;59511;52.136;6.206;2023-09-12T04:15:33;101333.81;;;22.73;73.26
71678;BME280;59511;52.136;6.206;2023-09-12T04:17:58;101338.66;;;22.71;73.36
71678;BME280;59511;52.136;6.206;2023-09-12T04:20:24;101340.34;;;22.72;73.48
71678;BME280;59511;52.136;6.206;2023-09-12T04:22:50;101340.09;;;22.73;73.59
71678;BME280;59511;52.136;6.206;2023-09-12T04:25:15;101327.34;;;22.74;73.33
71678;BME280;59511;52.136;6.206;2023-09-12T04:27:41;101323.31;;;22.76;73.36
71678;BME280;59511;52.136;6.206;2023-09-12T04:30:07;101323.56;;;22.75;73.46
71678;BME280;59511;52.136;6.206;2023-09-12T04:32:33;101314.34;;;22.76;73.38
71678;BME280;59511;52.136;6.206;2023-09-12T04:34:58;101310.81;;;22.75;73.68
71678;BME280;59511;52.136;6.206;2023-09-12T04:37:23;101310.81;;;22.75;73.40
71678;BME280;59511;52.136;6.206;2023-09-12T04:39:49;101314.34;;;22.76;73.19
71678;BME280;59511;52.136;6.206;2023-09-12T04:42:14;101323.31;;;22.76;73.30
71678;BME280;59511;52.136;6.206;2023-09-12T04:44:40;101316.00;;;22.77;73.24
71678;BME280;59511;52.136;6.206;2023-09-12T04:47:07;101314.81;;;22.73;73.32
71678;BME280;59511;52.136;6.206;2023-09-12T04:49:33;101309.75;;;22.76;73.30
71678;BME280;59511;52.136;6.206;2023-09-12T04:51:58;101308.91;;;22.76;73.02
71678;BME280;59511;52.136;6.206;2023-09-12T04:54:24;101321.19;;;22.78;72.86
71678;BME280;59511;52.136;6.206;2023-09-12T04:56:49;101327.22;;;22.80;72.97
71678;BME280;59511;52.136;6.206;2023-09-12T04:59:15;101315.66;;;22.73;72.56
71678;BME280;59511;52.136;6.206;2023-09-12T05:01:40;101324.16;;;22.77;72.97
71678;BME280;59511;52.136;6.206;2023-09-12T05:04:05;101320.59;;;22.76;72.93
71678;BME280;59511;52.136;6.206;2023-09-12T05:06:31;101329.56;;;22.77;72.96
71678;BME280;59511;52.136;6.206;2023-09-12T05:08:56;101331.47;;;22.76;72.81
71678;BME280;59511;52.136;6.206;2023-09-12T05:11:22;101336.06;;;22.76;72.86
71678;BME280;59511;52.136;6.206;2023-09-12T05:13:49;101355.31;;;22.74;72.82
71678;BME280;59511;52.136;6.206;2023-09-12T05:16:14;101355.91;;;22.76;73.02
71678;BME280;59511;52.136;6.206;2023-09-12T05:18:42;101364.88;;;22.77;72.60
71678;BME280;59511;52.136;6.206;2023-09-12T05:21:08;101359.09;;;22.73;72.92
71678;BME280;59511;52.136;6.206;2023-09-12T05:23:34;101356.97;;;22.75;73.04
71678;BME280;59511;52.136;6.206;2023-09-12T05:25:59;101369.47;;;22.76;72.73
71678;BME280;59511;52.136;6.206;2023-09-12T05:28:25;101359.44;;;22.77;72.61
71678;BME280;59511;52.136;6.206;2023-09-12T05:30:50;101361.31;;;22.76;73.01
71678;BME280;59511;52.136;6.206;2023-09-12T05:33:15;101354.84;;;22.77;73.04
71678;BME280;59511;52.136;6.206;2023-09-12T05:35:41;101352.13;;;22.77;72.82
71678;BME280;59511;52.136;6.206;2023-09-12T05:38:06;101358.59;;;22.76;72.72
71678;BME280;59511;52.136;6.206;2023-09-12T05:40:31;101365.72;;;22.77;73.00
71678;BME280;59511;52.136;6.206;2023-09-12T05:42:57;101369.72;;;22.75;73.02
71678;BME280;59511;52.136;6.206;2023-09-12T05:45:22;101383.53;;;22.73;73.16
71678;BME280;59511;52.136;6.206;2023-09-12T05:47:48;101396.50;;;22.71;73.36
71678;BME280;59511;52.136;6.206;2023-09-12T05:50:15;101392.28;;;22.75;73.21
71678;BME280;59511;52.136;6.206;2023-09-12T05:52:41;101375.72;;;22.77;73.02
71678;BME280;59511;52.136;6.206;2023-09-12T05:55:08;101383.63;;;22.78;73.18
71678;BME280;59511;52.136;6.206;2023-09-12T05:57:33;101380.34;;;22.76;73.30
71678;BME280;59511;52.136;6.206;2023-09-12T05:59:59;101383.53;;;22.73;73.10
71678;BME280;59511;52.136;6.206;2023-09-12T06:02:35;101399.34;;;22.76;73.15
71678;BME280;59511;52.136;6.206;2023-09-12T06:05:01;101390.69;;;22.79;72.93
71678;BME280;59511;52.136;6.206;2023-09-12T06:07:26;101382.56;;;22.79;72.77
71678;BME280;59511;52.136;6.206;2023-09-12T06:09:51;101378.09;;;22.73;73.21
71678;BME280;59511;52.136;6.206;2023-09-12T06:12:17;101383.53;;;22.73;73.10
71678;BME280;59511;52.136;6.206;2023-09-12T06:14:43;101390.25;;;22.71;73.29
71678;BME280;59511;52.136;6.206;2023-09-12T06:17:09;101398.38;;;22.71;73.25
71678;BME280;59511;52.136;6.206;2023-09-12T06:19:34;101395.69;;;22.71;72.93
71678;BME280;59511;52.136;6.206;2023-09-12T06:21:59;101400.50;;;22.69;73.31
71678;BME280;59511;52.136;6.206;2023-09-12T06:24:25;101407.13;;;22.73;73.31
71678;BME280;59511;52.136;6.206;2023-09-12T06:26:50;101407.72;;;22.75;73.04
71678;BME280;59511;52.136;6.206;2023-09-12T06:29:16;101418.00;;;22.73;73.08
71678;BME280;59511;52.136;6.206;2023-09-12T06:31:42;101415.28;;;22.73;73.06
71678;BME280;59511;52.136;6.206;2023-09-12T06:34:08;101418.00;;;22.73;73.08
71678;BME280;59511;52.136;6.206;2023-09-12T06:36:33;101420.94;;;22.71;73.19
71678;BME280;59511;52.136;6.206;2023-09-12T06:38:59;101413.63;;;22.72;72.96
71678;BME280;59511;52.136;6.206;2023-09-12T06:41:26;101420.69;;;22.73;73.06
71678;BME280;59511;52.136;6.206;2023-09-12T06:43:52;101424.25;;;22.73;73.19
71678;BME280;59511;52.136;6.206;2023-09-12T06:46:17;101423.41;;;22.73;73.26
71678;BME280;59511;52.136;6.206;2023-09-12T06:48:46;101425.53;;;22.71;73.25
71678;BME280;59511;52.136;6.206;2023-09-12T06:51:12;101422.81;;;22.71;73.32
71678;BME280;59511;52.136;6.206;2023-09-12T06:53:38;101422.59;;;22.72;73.25
71678;BME280;59511;52.136;6.206;2023-09-12T06:56:04;101427.81;;;22.74;73.10
71678;BME280;59511;52.136;6.206;2023-09-12T06:58:30;101423.41;;;22.73;73.39
71678;BME280;59511;52.136;6.206;2023-09-12T07:00:55;101436.75;;;22.74;73.14
71678;BME280;59511;52.136;6.206;2023-09-12T07:03:20;101428.84;;;22.73;73.22
71678;BME280;59511;52.136;6.206;2023-09-12T07:05:46;101434.53;;;22.71;73.05
71678;BME280;59511;52.136;6.206;2023-09-12T07:08:11;101437.00;;;22.73;73.29
71678;BME280;59511;52.136;6.206;2023-09-12T07:10:43;101438.44;;;22.75;72.86
71678;BME280;59511;52.136;6.206;2023-09-12T07:13:09;101434.88;;;22.75;73.22
71678;BME280;59511;52.136;6.206;2023-09-12T07:15:35;101432.16;;;22.75;73.18
71678;BME280;59511;52.136;6.206;2023-09-12T07:18:01;101435.72;;;22.75;73.30
71678;BME280;59511;52.136;6.206;2023-09-12T07:20:27;101431.56;;;22.73;73.14
71678;BME280;59511;52.136;6.206;2023-09-12T07:22:52;101436.75;;;22.74;73.31
71678;BME280;59511;52.136;6.206;2023-09-12T07:25:18;101425.88;;;22.74;73.35
71678;BME280;59511;52.136;6.206;2023-09-12T07:27:44;101423.41;;;22.73;73.26
71678;BME280;59511;52.136;6.206;2023-09-12T07:30:10;101427.81;;;22.74;73.17
71678;BME280;59511;52.136;6.206;2023-09-12T07:32:35;101425.88;;;22.74;73.33
71678;BME280;59511;52.136;6.206;2023-09-12T07:35:01;101422.59;;;22.72;73.43
71678;BME280;59511;52.136;6.206;2023-09-12T07:37:26;101428.16;;;22.77;73.15
71678;BME280;59511;52.136;6.206;2023-09-12T07:39:52;101432.16;;;22.75;73.20
71678;BME280;59511;52.136;6.206;2023-09-12T07:42:21;101429.69;;;22.73;73.06
71678;BME280;59511;52.136;6.206;2023-09-12T07:44:46;101428.38;;;22.76;73.27
71678;BME280;59511;52.136;6.206;2023-09-12T07:47:12;101421.78;;;22.72;73.27
71678;BME280;59511;52.136;6.206;2023-09-12T07:49:38;101419.41;;;22.75;73.44
71678;BME280;59511;52.136;6.206;2023-09-12T07:52:03;101427.56;;;22.75;73.29
71678;BME280;59511;52.136;6.206;2023-09-12T07:54:29;101423.19;;;22.74;73.37
71678;BME280;59511;52.136;6.206;2023-09-12T07:56:55;101417.41;;;22.71;73.43
71678;BME280;59511;52.136;6.206;2023-09-12T07:59:21;101410.69;;;22.73;73.45
71678;BME280;59511;52.136;6.206;2023-09-12T08:01:47;101412.06;;;22.76;73.32
71678;BME280;59511;52.136;6.206;2023-09-12T08:04:12;101411.88;;;22.77;73.28
71678;BME280;59511;52.136;6.206;2023-09-12T08:06:40;101398.84;;;22.79;73.28
71678;BME280;59511;52.136;6.206;2023-09-12T08:09:06;101414.59;;;22.77;73.16
71678;BME280;59511;52.136;6.206;2023-09-12T08:11:31;101412.31;;;22.74;73.17
71678;BME280;59511;52.136;6.206;2023-09-12T08:13:57;101418.44;;;22.81;73.09
71678;BME280;59511;52.136;6.206;2023-09-12T08:16:22;101415.03;;;22.86;72.79
71678;BME280;59511;52.136;6.206;2023-09-12T08:18:48;101418.00;;;22.84;72.88
71678;BME280;59511;52.136;6.206;2023-09-12T08:21:13;101419.03;;;22.83;72.96
71678;BME280;59511;52.136;6.206;2023-09-12T08:23:38;101409.59;;;22.86;72.83
71678;BME280;59511;52.136;6.206;2023-09-12T08:26:04;101413.03;;;22.81;73.33
71678;BME280;59511;52.136;6.206;2023-09-12T08:28:29;101417.41;;;22.82;73.18
71678;BME280;59511;52.136;6.206;2023-09-12T08:30:54;101423.44;;;22.84;72.80
71678;BME280;59511;52.136;6.206;2023-09-12T08:33:20;101416.91;;;22.85;73.03
71678;BME280;59511;52.136;6.206;2023-09-12T08:35:45;101423.19;;;22.86;72.79
71678;BME280;59511;52.136;6.206;2023-09-12T08:38:10;101416.69;;;22.87;73.03
71678;BME280;59511;52.136;6.206;2023-09-12T08:40:37;101410.41;;;22.86;72.81
71678;BME280;59511;52.136;6.206;2023-09-12T08:43:03;101413.38;;;22.85;72.97
71678;BME280;59511;52.136;6.206;2023-09-12T08:45:29;101412.56;;;22.84;72.84
71678;BME280;59511;52.136;6.206;2023-09-12T08:47:58;101418.22;;;22.83;73.10
71678;BME280;59511;52.136;6.206;2023-09-12T08:50:24;101418.81;;;22.85;72.70
71678;BME280;59511;52.136;6.206;2023-09-12T08:52:50;101423.88;;;22.81;72.85
71678;BME280;59511;52.136;6.206;2023-09-12T08:55:16;101436.16;;;22.84;73.11
71678;BME280;59511;52.136;6.206;2023-09-12T08:57:42;101434.28;;;22.84;72.82
71678;BME280;59511;52.136;6.206;2023-09-12T09:00:09;101442.88;;;22.81;73.08
71678;BME280;59511;52.136;6.206;2023-09-12T09:02:36;101439.38;;;22.81;73.21
71678;BME280;59511;52.136;6.206;2023-09-12T09:05:05;101447.50;;;22.81;73.06
71678;BME280;59511;52.136;6.206;2023-09-12T09:07:39;101448.06;;;22.83;72.98
71678;BME280;59511;52.136;6.206;2023-09-12T09:10:06;101453.50;;;22.83;73.12
71678;BME280;59511;52.136;6.206;2023-09-12T09:12:34;101443.13;;;22.80;73.13
71678;BME280;59511;52.136;6.206;2023-09-12T09:15:26;101445.59;;;22.81;72.90
71678;BME280;59511;52.136;6.206;2023-09-12T09:17:53;101445.84;;;22.80;72.97
71678;BME280;59511;52.136;6.206;2023-09-12T09:20:25;101453.50;;;22.83;72.81
71678;BME280;59511;52.136;6.206;2023-09-12T09:23:05;101437.69;;;22.80;72.79
71678;BME280;59511;52.136;6.206;2023-09-12T09:25:32;101452.69;;;22.82;73.07
71678;BME280;59511;52.136;6.206;2023-09-12T09:27:58;101438.53;;;22.80;73.03
71678;BME280;59511;52.136;6.206;2023-09-12T09:30:40;101453.75;;;22.81;72.90
71678;BME280;59511;52.136;6.206;2023-09-12T09:33:06;101449.88;;;22.77;73.26
71678;BME280;59511;52.136;6.206;2023-09-12T09:35:31;101446.91;;;22.79;73.15
71678;BME280;59511;52.136;6.206;2023-09-12T09:37:57;101451.03;;;22.81;73.19
71678;BME280;59511;52.136;6.206;2023-09-12T09:40:22;101448.31;;;22.81;72.76
71678;BME280;59511;52.136;6.206;2023-09-12T09:42:53;101443.72;;;22.82;73.00
71678;BME280;59511;52.136;6.206;2023-09-12T09:45:19;101450.00;;;22.82;72.89
71678;BME280;59511;52.136;6.206;2023-09-12T09:47:44;101454.81;;;22.80;73.09
71678;BME280;59511;52.136;6.206;2023-09-12T09:50:14;101453.50;;;22.83;73.06
71678;BME280;59511;52.136;6.206;2023-09-12T09:52:39;101449.75;;;22.84;72.73
71678;BME280;59511;52.136;6.206;2023-09-12T09:55:06;101453.50;;;22.83;72.68
71678;BME280;59511;52.136;6.206;2023-09-12T09:57:37;101462.50;;;22.83;72.93
71678;BME280;59511;52.136;6.206;2023-09-12T10:00:03;101463.56;;;22.82;72.88
71678;BME280;59511;52.136;6.206;2023-09-12T10:02:35;101466.53;;;22.81;72.84
71678;BME280;59511;52.136;6.206;2023-09-12T10:05:04;101466.72;;;22.79;73.10
71678;BME280;59511;52.136;6.206;2023-09-12T10:07:37;101460.00;;;22.82;73.16
71678;BME280;59511;52.136;6.206;2023-09-12T10:10:03;101469.59;;;22.84;72.97
71678;BME280;59511;52.136;6.206;2023-09-12T10:12:35;101473.13;;;22.85;72.76
71678;BME280;59511;52.136;6.206;2023-09-12T10:15:03;101479.38;;;22.85;72.87
71678;BME280;59511;52.136;6.206;2023-09-12T10:17:36;101484.31;;;22.88;72.60
71678;BME280;59511;52.136;6.206;2023-09-12T10:20:03;101489.75;;;22.88;72.67
71678;BME280;59511;52.136;6.206;2023-09-12T10:22:39;101483.16;;;22.84;72.59
71678;BME280;59511;52.136;6.206;2023-09-12T10:25:06;101489.75;;;22.88;72.73
71678;BME280;59511;52.136;6.206;2023-09-12T10:27:33;101489.41;;;22.85;72.90
71678;BME280;59511;52.136;6.206;2023-09-12T10:29:58;101487.75;;;22.84;72.83
71678;BME280;59511;52.136;6.206;2023-09-12T10:32:25;101490.25;;;22.85;72.59
71678;BME280;59511;52.136;6.206;2023-09-12T10:34:52;101482.94;;;22.86;72.61
71678;BME280;59511;52.136;6.206;2023-09-12T10:37:19;101486.44;;;22.86;72.84
71678;BME280;59511;52.136;6.206;2023-09-12T10:39:46;101464.97;;;22.85;72.60
71678;BME280;59511;52.136;6.206;2023-09-12T10:42:12;101458.25;;;22.88;72.74
71678;BME280;59511;52.136;6.206;2023-09-12T10:44:38;101458.25;;;22.88;72.83
71678;BME280;59511;52.136;6.206;2023-09-12T10:47:04;101451.38;;;22.85;72.72
71678;BME280;59511;52.136;6.206;2023-09-12T10:49:30;101450.69;;;22.90;72.63
71678;BME280;59511;52.136;6.206;2023-09-12T10:51:56;101436.75;;;22.86;72.62
71678;BME280;59511;52.136;6.206;2023-09-12T10:54:35;101439.84;;;22.90;72.55
71678;BME280;59511;52.136;6.206;2023-09-12T10:57:04;101442.06;;;22.93;72.41
71678;BME280;59511;52.136;6.206;2023-09-12T10:59:30;101444.78;;;22.93;72.47
71678;BME280;59511;52.136;6.206;2023-09-12T11:02:32;101448.09;;;22.95;72.29
71678;BME280;59511;52.136;6.206;2023-09-12T11:05:02;101449.13;;;22.94;72.29
71678;BME280;59511;52.136;6.206;2023-09-12T11:07:32;101448.34;;;22.93;72.41
71678;BME280;59511;52.136;6.206;2023-09-12T11:12:44;101447.50;;;22.93;72.36
71678;BME280;59511;52.136;6.206;2023-09-12T11:15:11;101447.75;;;22.91;72.30
71678;BME280;59511;52.136;6.206;2023-09-12T11:17:38;101450.34;;;22.86;72.34
71678;BME280;59511;52.136;6.206;2023-09-12T11:20:04;101448.22;;;22.88;72.47
71678;BME280;59511;52.136;6.206;2023-09-12T11:22:36;101448.91;;;22.83;73.08
71678;BME280;59511;52.136;6.206;2023-09-12T11:25:02;101453.28;;;22.84;72.82
71678;BME280;59511;52.136;6.206;2023-09-12T11:27:33;101455.03;;;22.91;72.41
71678;BME280;59511;52.136;6.206;2023-09-12T11:30:09;101446.22;;;22.95;72.43
71678;BME280;59511;52.136;6.206;2023-09-12T11:32:36;101445.63;;;22.93;72.42
71678;BME280;59511;52.136;6.206;2023-09-12T11:35:08;101439.09;;;22.94;72.42
71678;BME280;59511;52.136;6.206;2023-09-12T11:37:34;101448.09;;;22.95;72.28
71678;BME280;59511;52.136;6.206;2023-09-12T11:40:24;101438.16;;;22.88;72.33
71678;BME280;59511;52.136;6.206;2023-09-12T11:42:48;101442.66;;;22.95;72.41
71678;BME280;59511;52.136;6.206;2023-09-12T11:45:17;101441.22;;;22.92;72.58
71678;BME280;59511;52.136;6.206;2023-09-12T11:47:44;101439.94;;;22.95;72.19
71678;BME280;59511;52.136;6.206;2023-09-12T11:50:34;101434.03;;;22.98;72.33
71678;BME280;59511;52.136;6.206;2023-09-12T11:53:11;101432.50;;;22.90;72.52
71678;BME280;59511;52.136;6.206;2023-09-12T11:55:47;101430.38;;;22.92;72.23
71678;BME280;59511;52.136;6.206;2023-09-12T11:58:15;101426.50;;;22.88;72.61
71678;BME280;59511;52.136;6.206;2023-09-12T12:00:45;101417.63;;;22.93;72.44
71678;BME280;59511;52.136;6.206;2023-09-12T12:03:11;101426.59;;;22.93;72.19
71678;BME280;59511;52.136;6.206;2023-09-12T12:05:37;101420.34;;;22.93;72.31
71678;BME280;59511;52.136;6.206;2023-09-12T12:08:03;101415.97;;;22.92;72.15
71678;BME280;59511;52.136;6.206;2023-09-12T12:10:28;101412.44;;;22.91;72.30
71678;BME280;59511;52.136;6.206;2023-09-12T12:12:55;101416.09;;;22.97;72.15
71678;BME280;59511;52.136;6.206;2023-09-12T12:15:20;101418.81;;;22.97;72.08
71678;BME280;59511;52.136;6.206;2023-09-12T12:17:46;101408.75;;;22.97;72.12
71678;BME280;59511;52.136;6.206;2023-09-12T12:20:11;101403.56;;;22.96;72.13
71678;BME280;59511;52.136;6.206;2023-09-12T12:22:38;101404.16;;;22.98;71.99
71678;BME280;59511;52.136;6.206;2023-09-12T12:25:08;101405.22;;;22.97;72.32
71678;BME280;59511;52.136;6.206;2023-09-12T12:27:37;101407.94;;;22.97;72.01
71678;BME280;59511;52.136;6.206;2023-09-12T12:30:06;101404.63;;;22.95;72.23
71678;BME280;59511;52.136;6.206;2023-09-12T12:32:32;101406.88;;;22.98;71.98
71678;BME280;59511;52.136;6.206;2023-09-12T12:34:57;101410.16;;;23.00;71.92
71678;BME280;59511;52.136;6.206;2023-09-12T12:37:28;101396.59;;;23.00;71.89
71678;BME280;59511;52.136;6.206;2023-09-12T12:39:55;101398.22;;;23.01;72.07
71678;BME280;59511;52.136;6.206;2023-09-12T12:42:20;101399.31;;;23.00;72.18
71678;BME280;59511;52.136;6.206;2023-09-12T12:44:52;101393.28;;;22.98;71.89
71678;BME280;59511;52.136;6.206;2023-09-12T12:47:18;101389.97;;;22.96;72.20
71678;BME280;59511;52.136;6.206;2023-09-12T12:49:43;101390.31;;;22.99;71.97
71678;BME280;59511;52.136;6.206;2023-09-12T12:52:11;101383.25;;;22.98;72.15
71678;BME280;59511;52.136;6.206;2023-09-12T12:54:37;101393.28;;;22.98;72.09
71678;BME280;59511;52.136;6.206;2023-09-12T12:57:02;101386.31;;;23.02;71.83